sensor_id;sensor_type;location;lat;lon;timestamp;pressure;altitude;pressure_sealevel;temperature
61390;BMP280;47260;48.274;19.814;2022-10-16T00:00:25;99869.78;;;13.23
61390;BMP280;47260;48.274;19.814;2022-10-16T00:02:51;99862.47;;;13.18
61390;BMP280;47260;48.274;19.814;2022-10-16T00:05:18;99864.72;;;13.09
61390;BMP280;47260;48.274;19.814;2022-10-16T00:07:44;99878.69;;;13.07
61390;BMP280;47260;48.274;19.814;2022-10-16T00:10:11;99874.56;;;12.95
61390;BMP280;47260;48.274;19.814;2022-10-16T00:12:37;99870.41;;;12.89
61390;BMP280;47260;48.274;19.814;2022-10-16T00:15:04;99871.66;;;12.82
61390;BMP280;47260;48.274;19.814;2022-10-16T00:17:32;99874.84;;;12.75
61390;BMP280;47260;48.274;19.814;2022-10-16T00:19:58;99880.97;;;12.70
61390;BMP280;47260;48.274;19.814;2022-10-16T00:22:25;99884.63;;;12.72
61390;BMP280;47260;48.274;19.814;2022-10-16T00:24:51;99888.06;;;12.73
61390;BMP280;47260;48.274;19.814;2022-10-16T00:27:18;99889.78;;;12.76
61390;BMP280;47260;48.274;19.814;2022-10-16T00:29:44;99890.03;;;12.78
61390;BMP280;47260;48.274;19.814;2022-10-16T00:32:11;99886.09;;;12.79
61390;BMP280;47260;48.274;19.814;2022-10-16T00:34:39;99889.53;;;12.85
61390;BMP280;47260;48.274;19.814;2022-10-16T00:37:06;99893.94;;;12.88
61390;BMP280;47260;48.274;19.814;2022-10-16T00:39:32;99883.41;;;12.90
61390;BMP280;47260;48.274;19.814;2022-10-16T00:41:59;99887.31;;;12.89
61390;BMP280;47260;48.274;19.814;2022-10-16T00:47:10;99894.16;;;12.79
61390;BMP280;47260;48.274;19.814;2022-10-16T00:49:39;99893.69;;;12.80
61390;BMP280;47260;48.274;19.814;2022-10-16T00:52:05;99895.41;;;12.83
61390;BMP280;47260;48.274;19.814;2022-10-16T00:54:32;99896.16;;;12.90
61390;BMP280;47260;48.274;19.814;2022-10-16T00:56:59;99899.53;;;12.96
61390;BMP280;47260;48.274;19.814;2022-10-16T00:59:27;99905.91;;;12.98
61390;BMP280;47260;48.274;19.814;2022-10-16T01:01:54;99901.53;;;12.95
61390;BMP280;47260;48.274;19.814;2022-10-16T01:04:21;99904.22;;;12.95
61390;BMP280;47260;48.274;19.814;2022-10-16T01:06:50;99914.25;;;12.95
61390;BMP280;47260;48.274;19.814;2022-10-16T01:09:18;99906.44;;;12.86
61390;BMP280;47260;48.274;19.814;2022-10-16T01:11:49;99905.69;;;12.85
61390;BMP280;47260;48.274;19.814;2022-10-16T01:14:21;99905.94;;;12.87
61390;BMP280;47260;48.274;19.814;2022-10-16T01:16:48;99905.94;;;12.93
61390;BMP280;47260;48.274;19.814;2022-10-16T01:19:19;99905.44;;;12.94
61390;BMP280;47260;48.274;19.814;2022-10-16T01:21:46;99909.38;;;12.88
61390;BMP280;47260;48.274;19.814;2022-10-16T01:24:17;99916.72;;;12.87
61390;BMP280;47260;48.274;19.814;2022-10-16T01:29:23;99923.59;;;12.88
61390;BMP280;47260;48.274;19.814;2022-10-16T01:31:53;99921.34;;;12.92
61390;BMP280;47260;48.274;19.814;2022-10-16T01:34:22;99917.19;;;12.97
61390;BMP280;47260;48.274;19.814;2022-10-16T01:36:51;99926.53;;;12.90
61390;BMP280;47260;48.274;19.814;2022-10-16T01:39:18;99920.91;;;12.88
61390;BMP280;47260;48.274;19.814;2022-10-16T01:41:47;99927.75;;;12.89
61390;BMP280;47260;48.274;19.814;2022-10-16T01:44:16;99927.50;;;12.81
61390;BMP280;47260;48.274;19.814;2022-10-16T01:46:46;99927.25;;;12.79
61390;BMP280;47260;48.274;19.814;2022-10-16T01:49:14;99928.47;;;12.78
61390;BMP280;47260;48.274;19.814;2022-10-16T01:51:42;99919.16;;;12.68
61390;BMP280;47260;48.274;19.814;2022-10-16T01:54:10;99922.13;;;12.65
61390;BMP280;47260;48.274;19.814;2022-10-16T01:56:38;99922.84;;;12.65
61390;BMP280;47260;48.274;19.814;2022-10-16T01:59:06;99922.34;;;12.72
61390;BMP280;47260;48.274;19.814;2022-10-16T02:01:33;99922.84;;;12.76
61390;BMP280;47260;48.274;19.814;2022-10-16T02:04:03;99923.81;;;12.79
61390;BMP280;47260;48.274;19.814;2022-10-16T02:06:30;99926.50;;;12.79
61390;BMP280;47260;48.274;19.814;2022-10-16T02:08:58;99917.97;;;12.80
61390;BMP280;47260;48.274;19.814;2022-10-16T02:11:25;99927.25;;;12.79
61390;BMP280;47260;48.274;19.814;2022-10-16T02:13:53;99927.25;;;12.79
61390;BMP280;47260;48.274;19.814;2022-10-16T02:16:20;99926.03;;;12.80
61390;BMP280;47260;48.274;19.814;2022-10-16T02:18:47;99927.75;;;12.78
61390;BMP280;47260;48.274;19.814;2022-10-16T02:21:16;99929.19;;;12.79
61390;BMP280;47260;48.274;19.814;2022-10-16T02:23:45;99934.38;;;12.77
61390;BMP280;47260;48.274;19.814;2022-10-16T02:26:15;99931.19;;;12.73
61390;BMP280;47260;48.274;19.814;2022-10-16T02:28:45;99938.03;;;12.74
61390;BMP280;47260;48.274;19.814;2022-10-16T02:31:13;99933.13;;;12.72
61390;BMP280;47260;48.274;19.814;2022-10-16T02:33:41;99940.72;;;12.74
61390;BMP280;47260;48.274;19.814;2022-10-16T02:36:09;99947.34;;;12.67
61390;BMP280;47260;48.274;19.814;2022-10-16T02:38:37;99944.16;;;12.63
61390;BMP280;47260;48.274;19.814;2022-10-16T02:41:04;99944.91;;;12.64
61390;BMP280;47260;48.274;19.814;2022-10-16T02:43:30;99950.53;;;12.60
61390;BMP280;47260;48.274;19.814;2022-10-16T02:45:58;99940.97;;;12.48
61390;BMP280;47260;48.274;19.814;2022-10-16T02:48:25;99949.03;;;12.48
61390;BMP280;47260;48.274;19.814;2022-10-16T02:50:51;99953.97;;;12.50
61390;BMP280;47260;48.274;19.814;2022-10-16T02:53:18;99957.13;;;12.48
61390;BMP280;47260;48.274;19.814;2022-10-16T02:55:45;99960.78;;;12.51
61390;BMP280;47260;48.274;19.814;2022-10-16T02:58:12;99952.47;;;12.49
61390;BMP280;47260;48.274;19.814;2022-10-16T03:00:38;99954.19;;;12.52
61390;BMP280;47260;48.274;19.814;2022-10-16T03:03:05;99955.19;;;12.54
61390;BMP280;47260;48.274;19.814;2022-10-16T03:05:31;99959.06;;;12.53
61390;BMP280;47260;48.274;19.814;2022-10-16T03:07:58;99953.22;;;12.49
61390;BMP280;47260;48.274;19.814;2022-10-16T03:10:25;99961.03;;;12.42
61390;BMP280;47260;48.274;19.814;2022-10-16T03:12:53;99968.13;;;12.45
61390;BMP280;47260;48.274;19.814;2022-10-16T03:15:19;99960.03;;;12.39
61390;BMP280;47260;48.274;19.814;2022-10-16T03:17:46;99960.78;;;12.34
61390;BMP280;47260;48.274;19.814;2022-10-16T03:20:12;99954.63;;;12.28
61390;BMP280;47260;48.274;19.814;2022-10-16T03:22:39;99960.75;;;12.29
61390;BMP280;47260;48.274;19.814;2022-10-16T03:25:05;99961.44;;;12.18
61390;BMP280;47260;48.274;19.814;2022-10-16T03:27:32;99966.84;;;12.18
61390;BMP280;47260;48.274;19.814;2022-10-16T03:30:00;99961.44;;;12.18
61390;BMP280;47260;48.274;19.814;2022-10-16T03:32:26;99967.31;;;12.11
61390;BMP280;47260;48.274;19.814;2022-10-16T03:34:53;99966.56;;;12.05
61390;BMP280;47260;48.274;19.814;2022-10-16T03:37:21;99968.50;;;11.99
61390;BMP280;47260;48.274;19.814;2022-10-16T03:39:48;99969.22;;;11.94
61390;BMP280;47260;48.274;19.814;2022-10-16T03:42:14;99979.47;;;11.90
61390;BMP280;47260;48.274;19.814;2022-10-16T03:44:40;99978.47;;;11.82
61390;BMP280;47260;48.274;19.814;2022-10-16T03:47:08;99980.66;;;11.78
61390;BMP280;47260;48.274;19.814;2022-10-16T03:49:35;99976.72;;;11.73
61390;BMP280;47260;48.274;19.814;2022-10-16T03:52:01;99991.84;;;11.65
61390;BMP280;47260;48.274;19.814;2022-10-16T03:54:28;99990.06;;;11.57
61390;BMP280;47260;48.274;19.814;2022-10-16T03:56:54;99995.91;;;11.50
61390;BMP280;47260;48.274;19.814;2022-10-16T03:59:21;99986.78;;;11.36
61390;BMP280;47260;48.274;19.814;2022-10-16T04:01:47;99990.69;;;11.35
61390;BMP280;47260;48.274;19.814;2022-10-16T04:04:15;100003.13;;;11.33
61390;BMP280;47260;48.274;19.814;2022-10-16T04:06:41;99995.03;;;11.27
61390;BMP280;47260;48.274;19.814;2022-10-16T04:09:08;100008.47;;;11.27
61390;BMP280;47260;48.274;19.814;2022-10-16T04:11:34;99998.34;;;11.17
61390;BMP280;47260;48.274;19.814;2022-10-16T04:14:01;100000.28;;;11.11
61390;BMP280;47260;48.274;19.814;2022-10-16T04:16:27;100012.84;;;10.99
61390;BMP280;47260;48.274;19.814;2022-10-16T04:18:54;100017.47;;;10.93
61390;BMP280;47260;48.274;19.814;2022-10-16T04:21:22;100015.22;;;10.92
61390;BMP280;47260;48.274;19.814;2022-10-16T04:23:48;100019.53;;;10.83
61390;BMP280;47260;48.274;19.814;2022-10-16T04:26:15;100023.94;;;10.81
61390;BMP280;47260;48.274;19.814;2022-10-16T04:28:42;100029.41;;;10.66
61390;BMP280;47260;48.274;19.814;2022-10-16T04:31:08;100024.03;;;10.66
61390;BMP280;47260;48.274;19.814;2022-10-16T04:33:35;100029.09;;;10.59
61390;BMP280;47260;48.274;19.814;2022-10-16T04:36:02;100021.78;;;10.59
61390;BMP280;47260;48.274;19.814;2022-10-16T04:38:30;100019.28;;;10.56
61390;BMP280;47260;48.274;19.814;2022-10-16T04:40:56;100019.56;;;10.38
61390;BMP280;47260;48.274;19.814;2022-10-16T04:43:23;100018.09;;;10.37
61390;BMP280;47260;48.274;19.814;2022-10-16T04:45:50;100020.84;;;10.42
61390;BMP280;47260;48.274;19.814;2022-10-16T04:48:16;100017.75;;;10.49
61390;BMP280;47260;48.274;19.814;2022-10-16T04:50:43;100017.06;;;10.54
61390;BMP280;47260;48.274;19.814;2022-10-16T04:53:09;100017.13;;;10.60
61390;BMP280;47260;48.274;19.814;2022-10-16T04:55:37;100016.41;;;10.59
61390;BMP280;47260;48.274;19.814;2022-10-16T04:58:04;100020.88;;;10.68
61390;BMP280;47260;48.274;19.814;2022-10-16T05:00:31;100022.91;;;10.78
61390;BMP280;47260;48.274;19.814;2022-10-16T05:02:57;100025.66;;;10.84
61390;BMP280;47260;48.274;19.814;2022-10-16T05:05:25;100023.22;;;10.86
61390;BMP280;47260;48.274;19.814;2022-10-16T05:07:52;100023.22;;;10.86
61390;BMP280;47260;48.274;19.814;2022-10-16T05:10:19;100033.78;;;10.90
61390;BMP280;47260;48.274;19.814;2022-10-16T05:12:46;100030.91;;;10.93
61390;BMP280;47260;48.274;19.814;2022-10-16T05:15:13;100035.84;;;11.00
61390;BMP280;47260;48.274;19.814;2022-10-16T05:17:40;100041.53;;;11.08
61390;BMP280;47260;48.274;19.814;2022-10-16T05:20:06;100045.75;;;11.14
61390;BMP280;47260;48.274;19.814;2022-10-16T05:22:33;100049.16;;;11.15
61390;BMP280;47260;48.274;19.814;2022-10-16T05:24:59;100047.56;;;11.28
61390;BMP280;47260;48.274;19.814;2022-10-16T05:27:26;100044.00;;;11.42
61390;BMP280;47260;48.274;19.814;2022-10-16T05:29:54;100047.59;;;12.13
61390;BMP280;47260;48.274;19.814;2022-10-16T05:32:20;100050.25;;;12.82
61390;BMP280;47260;48.274;19.814;2022-10-16T05:34:47;100045.84;;;13.40
61390;BMP280;47260;48.274;19.814;2022-10-16T05:37:13;100054.34;;;13.72
61390;BMP280;47260;48.274;19.814;2022-10-16T05:39:40;100055.41;;;13.41
61390;BMP280;47260;48.274;19.814;2022-10-16T05:42:06;100060.69;;;13.80
61390;BMP280;47260;48.274;19.814;2022-10-16T05:44:33;100065.44;;;13.46
61390;BMP280;47260;48.274;19.814;2022-10-16T05:47:00;100069.84;;;13.00
61390;BMP280;47260;48.274;19.814;2022-10-16T05:49:27;100063.94;;;12.79
61390;BMP280;47260;48.274;19.814;2022-10-16T05:51:53;100076.63;;;12.56
61390;BMP280;47260;48.274;19.814;2022-10-16T05:54:20;100082.22;;;12.42
61390;BMP280;47260;48.274;19.814;2022-10-16T05:56:46;100086.13;;;12.35
61390;BMP280;47260;48.274;19.814;2022-10-16T05:59:13;100091.22;;;12.33
61390;BMP280;47260;48.274;19.814;2022-10-16T06:01:39;100095.09;;;12.21
61390;BMP280;47260;48.274;19.814;2022-10-16T06:04:07;100094.81;;;12.14
61390;BMP280;47260;48.274;19.814;2022-10-16T06:06:34;100099.47;;;12.13
61390;BMP280;47260;48.274;19.814;2022-10-16T06:09:01;100102.91;;;12.14
61390;BMP280;47260;48.274;19.814;2022-10-16T06:11:29;100112.00;;;12.22
61390;BMP280;47260;48.274;19.814;2022-10-16T06:13:56;100114.75;;;12.38
61390;BMP280;47260;48.274;19.814;2022-10-16T06:16:23;100120.50;;;12.62
61390;BMP280;47260;48.274;19.814;2022-10-16T06:18:50;100126.19;;;12.81
61390;BMP280;47260;48.274;19.814;2022-10-16T06:21:19;100126.22;;;13.31
61390;BMP280;47260;48.274;19.814;2022-10-16T06:23:46;100126.16;;;14.08
61390;BMP280;47260;48.274;19.814;2022-10-16T06:26:13;100121.19;;;15.88
61390;BMP280;47260;48.274;19.814;2022-10-16T06:28:40;100120.13;;;16.71
61390;BMP280;47260;48.274;19.814;2022-10-16T06:31:07;100122.41;;;17.69
61390;BMP280;47260;48.274;19.814;2022-10-16T06:33:34;100124.47;;;18.02
61390;BMP280;47260;48.274;19.814;2022-10-16T06:36:01;100125.88;;;17.57
61390;BMP280;47260;48.274;19.814;2022-10-16T06:38:29;100127.75;;;17.75
61390;BMP280;47260;48.274;19.814;2022-10-16T06:40:56;100125.66;;;17.41
61390;BMP280;47260;48.274;19.814;2022-10-16T06:43:22;100136.50;;;18.74
61390;BMP280;47260;48.274;19.814;2022-10-16T06:45:52;100142.19;;;19.96
61390;BMP280;47260;48.274;19.814;2022-10-16T06:48:18;100142.69;;;20.60
61390;BMP280;47260;48.274;19.814;2022-10-16T06:50:54;100135.56;;;21.32
61390;BMP280;47260;48.274;19.814;2022-10-16T06:53:20;100138.59;;;21.59
61390;BMP280;47260;48.274;19.814;2022-10-16T06:55:48;100135.72;;;21.42
61390;BMP280;47260;48.274;19.814;2022-10-16T06:58:15;100142.28;;;22.25
61390;BMP280;47260;48.274;19.814;2022-10-16T07:00:42;100148.34;;;22.90
61390;BMP280;47260;48.274;19.814;2022-10-16T07:03:08;100159.03;;;22.79
61390;BMP280;47260;48.274;19.814;2022-10-16T07:05:37;100163.78;;;23.20
61390;BMP280;47260;48.274;19.814;2022-10-16T07:08:03;100166.81;;;23.41
61390;BMP280;47260;48.274;19.814;2022-10-16T07:10:30;100170.88;;;23.40
61390;BMP280;47260;48.274;19.814;2022-10-16T07:12:58;100175.13;;;24.20
61390;BMP280;47260;48.274;19.814;2022-10-16T07:15:25;100184.09;;;23.94
61390;BMP280;47260;48.274;19.814;2022-10-16T07:17:51;100181.88;;;24.92
61390;BMP280;47260;48.274;19.814;2022-10-16T07:20:18;100173.19;;;24.76
61390;BMP280;47260;48.274;19.814;2022-10-16T07:22:45;100178.56;;;22.58
61390;BMP280;47260;48.274;19.814;2022-10-16T07:25:11;100173.53;;;21.68
61390;BMP280;47260;48.274;19.814;2022-10-16T07:27:38;100187.25;;;22.07
61390;BMP280;47260;48.274;19.814;2022-10-16T07:30:07;100189.44;;;21.54
61390;BMP280;47260;48.274;19.814;2022-10-16T07:32:34;100187.31;;;21.30
61390;BMP280;47260;48.274;19.814;2022-10-16T07:35:00;100197.63;;;22.09
61390;BMP280;47260;48.274;19.814;2022-10-16T07:37:27;100197.09;;;22.43
61390;BMP280;47260;48.274;19.814;2022-10-16T07:39:53;100196.16;;;21.68
61390;BMP280;47260;48.274;19.814;2022-10-16T07:42:20;100205.59;;;22.22
61390;BMP280;47260;48.274;19.814;2022-10-16T07:44:46;100209.38;;;21.94
61390;BMP280;47260;48.274;19.814;2022-10-16T07:47:14;100201.19;;;21.79
61390;BMP280;47260;48.274;19.814;2022-10-16T07:49:41;100206.91;;;21.66
61390;BMP280;47260;48.274;19.814;2022-10-16T07:52:07;100211.31;;;21.32
61390;BMP280;47260;48.274;19.814;2022-10-16T07:54:33;100213.88;;;21.30
61390;BMP280;47260;48.274;19.814;2022-10-16T07:57:00;100215.53;;;21.18
61390;BMP280;47260;48.274;19.814;2022-10-16T07:59:26;100218.81;;;20.94
61390;BMP280;47260;48.274;19.814;2022-10-16T08:01:53;100218.81;;;20.79
61390;BMP280;47260;48.274;19.814;2022-10-16T08:04:21;100226.03;;;21.66
61390;BMP280;47260;48.274;19.814;2022-10-16T08:06:47;100220.81;;;21.08
61390;BMP280;47260;48.274;19.814;2022-10-16T08:09:14;100228.28;;;21.15
61390;BMP280;47260;48.274;19.814;2022-10-16T08:11:41;100223.91;;;21.12
61390;BMP280;47260;48.274;19.814;2022-10-16T08:14:07;100225.53;;;21.00
61390;BMP280;47260;48.274;19.814;2022-10-16T08:16:34;100229.50;;;20.84
61390;BMP280;47260;48.274;19.814;2022-10-16T08:19:00;100232.22;;;20.62
61390;BMP280;47260;48.274;19.814;2022-10-16T08:21:29;100233.25;;;20.36
61390;BMP280;47260;48.274;19.814;2022-10-16T08:23:55;100231.13;;;20.06
61390;BMP280;47260;48.274;19.814;2022-10-16T08:26:22;100236.66;;;20.21
61390;BMP280;47260;48.274;19.814;2022-10-16T08:28:49;100238.81;;;19.87
61390;BMP280;47260;48.274;19.814;2022-10-16T08:31:16;100238.00;;;19.72
61390;BMP280;47260;48.274;19.814;2022-10-16T08:33:43;100243.66;;;19.74
61390;BMP280;47260;48.274;19.814;2022-10-16T08:36:10;100241.06;;;19.96
61390;BMP280;47260;48.274;19.814;2022-10-16T08:38:38;100240.50;;;19.98
61390;BMP280;47260;48.274;19.814;2022-10-16T08:41:20;100252.03;;;19.55
61390;BMP280;47260;48.274;19.814;2022-10-16T08:43:54;100244.13;;;19.65
61390;BMP280;47260;48.274;19.814;2022-10-16T08:46:26;100236.50;;;19.43
61390;BMP280;47260;48.274;19.814;2022-10-16T08:48:59;100236.63;;;17.90
61390;BMP280;47260;48.274;19.814;2022-10-16T08:51:26;100240.81;;;18.04
61390;BMP280;47260;48.274;19.814;2022-10-16T08:53:55;100245.59;;;17.98
61390;BMP280;47260;48.274;19.814;2022-10-16T08:56:22;100250.31;;;18.23
61390;BMP280;47260;48.274;19.814;2022-10-16T08:58:49;100240.28;;;18.18
61390;BMP280;47260;48.274;19.814;2022-10-16T09:01:17;100248.63;;;18.33
61390;BMP280;47260;48.274;19.814;2022-10-16T09:06:31;100251.44;;;18.54
61390;BMP280;47260;48.274;19.814;2022-10-16T09:11:51;100237.63;;;18.52
61390;BMP280;47260;48.274;19.814;2022-10-16T09:14:24;100238.09;;;18.97
61390;BMP280;47260;48.274;19.814;2022-10-16T09:17:04;100237.97;;;18.82
61390;BMP280;47260;48.274;19.814;2022-10-16T09:19:35;100242.59;;;18.74
61390;BMP280;47260;48.274;19.814;2022-10-16T09:22:09;100245.75;;;19.19
61390;BMP280;47260;48.274;19.814;2022-10-16T09:24:36;100251.50;;;18.61
61390;BMP280;47260;48.274;19.814;2022-10-16T09:27:04;100253.69;;;18.63
61390;BMP280;47260;48.274;19.814;2022-10-16T09:29:33;100253.78;;;18.70
61390;BMP280;47260;48.274;19.814;2022-10-16T09:32:06;100265.22;;;18.69
61390;BMP280;47260;48.274;19.814;2022-10-16T09:34:34;100273.94;;;19.22
61390;BMP280;47260;48.274;19.814;2022-10-16T09:37:03;100282.72;;;19.76
61390;BMP280;47260;48.274;19.814;2022-10-16T09:39:30;100275.28;;;20.05
61390;BMP280;47260;48.274;19.814;2022-10-16T09:41:56;100279.69;;;20.15
61390;BMP280;47260;48.274;19.814;2022-10-16T09:44:26;100287.75;;;20.28
61390;BMP280;47260;48.274;19.814;2022-10-16T09:47:01;100290.84;;;20.25
61390;BMP280;47260;48.274;19.814;2022-10-16T09:49:27;100296.56;;;20.06
61390;BMP280;47260;48.274;19.814;2022-10-16T09:52:02;100306.72;;;19.78
61390;BMP280;47260;48.274;19.814;2022-10-16T09:54:29;100300.00;;;20.07
61390;BMP280;47260;48.274;19.814;2022-10-16T09:57:03;100295.84;;;20.13
61390;BMP280;47260;48.274;19.814;2022-10-16T09:59:31;100296.25;;;20.17
61390;BMP280;47260;48.274;19.814;2022-10-16T10:02:01;100305.28;;;20.05
61390;BMP280;47260;48.274;19.814;2022-10-16T10:04:37;100302.63;;;20.20
61390;BMP280;47260;48.274;19.814;2022-10-16T10:07:04;100305.91;;;20.26
61390;BMP280;47260;48.274;19.814;2022-10-16T10:09:31;100304.31;;;20.30
61390;BMP280;47260;48.274;19.814;2022-10-16T10:11:59;100305.50;;;20.50
61390;BMP280;47260;48.274;19.814;2022-10-16T10:14:32;100307.50;;;20.57
61390;BMP280;47260;48.274;19.814;2022-10-16T10:17:06;100303.22;;;20.84
61390;BMP280;47260;48.274;19.814;2022-10-16T10:19:37;100299.03;;;20.76
61390;BMP280;47260;48.274;19.814;2022-10-16T10:22:11;100290.50;;;20.94
61390;BMP280;47260;48.274;19.814;2022-10-16T10:24:39;100291.66;;;21.06
61390;BMP280;47260;48.274;19.814;2022-10-16T10:27:06;100291.44;;;20.97
61390;BMP280;47260;48.274;19.814;2022-10-16T10:29:42;100287.50;;;20.54
61390;BMP280;47260;48.274;19.814;2022-10-16T10:32:12;100275.72;;;20.16
61390;BMP280;47260;48.274;19.814;2022-10-16T10:34:48;100272.66;;;19.43
61390;BMP280;47260;48.274;19.814;2022-10-16T10:37:23;100272.41;;;18.79
61390;BMP280;47260;48.274;19.814;2022-10-16T10:39:55;100274.84;;;19.45
61390;BMP280;47260;48.274;19.814;2022-10-16T10:42:24;100271.84;;;19.56
61390;BMP280;47260;48.274;19.814;2022-10-16T10:45:00;100262.56;;;19.79
61390;BMP280;47260;48.274;19.814;2022-10-16T10:47:33;100267.59;;;19.47
61390;BMP280;47260;48.274;19.814;2022-10-16T10:50:06;100269.81;;;19.77
61390;BMP280;47260;48.274;19.814;2022-10-16T10:52:36;100265.03;;;19.98
61390;BMP280;47260;48.274;19.814;2022-10-16T10:55:13;100254.91;;;20.06
61390;BMP280;47260;48.274;19.814;2022-10-16T10:57:44;100253.16;;;20.16
61390;BMP280;47260;48.274;19.814;2022-10-16T11:00:16;100260.41;;;19.57
61390;BMP280;47260;48.274;19.814;2022-10-16T11:02:48;100256.97;;;19.85
61390;BMP280;47260;48.274;19.814;2022-10-16T11:05:26;100260.50;;;19.72
61390;BMP280;47260;48.274;19.814;2022-10-16T11:07:55;100259.06;;;19.99
61390;BMP280;47260;48.274;19.814;2022-10-16T11:10:24;100256.22;;;19.84
61390;BMP280;47260;48.274;19.814;2022-10-16T11:12:52;100256.00;;;19.75
61390;BMP280;47260;48.274;19.814;2022-10-16T11:15:24;100250.19;;;20.06
61390;BMP280;47260;48.274;19.814;2022-10-16T11:17:52;100255.38;;;20.25
61390;BMP280;47260;48.274;19.814;2022-10-16T11:20:21;100264.28;;;20.25
61390;BMP280;47260;48.274;19.814;2022-10-16T11:22:50;100262.09;;;20.24
61390;BMP280;47260;48.274;19.814;2022-10-16T11:25:19;100262.91;;;19.76
61390;BMP280;47260;48.274;19.814;2022-10-16T11:27:47;100251.00;;;19.86
61390;BMP280;47260;48.274;19.814;2022-10-16T11:30:16;100253.38;;;19.62
61390;BMP280;47260;48.274;19.814;2022-10-16T11:32:51;100258.22;;;19.56
61390;BMP280;47260;48.274;19.814;2022-10-16T11:35:19;100250.34;;;19.73
61390;BMP280;47260;48.274;19.814;2022-10-16T11:37:47;100245.31;;;19.84
61390;BMP280;47260;48.274;19.814;2022-10-16T11:40:18;100241.72;;;20.17
61390;BMP280;47260;48.274;19.814;2022-10-16T11:42:46;100237.59;;;19.96
61390;BMP280;47260;48.274;19.814;2022-10-16T11:45:17;100240.81;;;19.87
61390;BMP280;47260;48.274;19.814;2022-10-16T11:47:54;100230.28;;;19.63
61390;BMP280;47260;48.274;19.814;2022-10-16T11:50:24;100233.19;;;19.37
61390;BMP280;47260;48.274;19.814;2022-10-16T11:52:53;100228.63;;;19.11
61390;BMP280;47260;48.274;19.814;2022-10-16T11:55:22;100228.75;;;19.47
61390;BMP280;47260;48.274;19.814;2022-10-16T11:57:50;100228.94;;;19.49
61390;BMP280;47260;48.274;19.814;2022-10-16T12:00:19;100225.22;;;19.59
61390;BMP280;47260;48.274;19.814;2022-10-16T12:02:54;100220.50;;;19.67
61390;BMP280;47260;48.274;19.814;2022-10-16T12:05:24;100225.13;;;19.80
61390;BMP280;47260;48.274;19.814;2022-10-16T12:07:54;100230.94;;;19.76
61390;BMP280;47260;48.274;19.814;2022-10-16T12:10:23;100217.94;;;19.90
61390;BMP280;47260;48.274;19.814;2022-10-16T12:12:50;100228.94;;;19.77
61390;BMP280;47260;48.274;19.814;2022-10-16T12:15:18;100224.38;;;20.07
61390;BMP280;47260;48.274;19.814;2022-10-16T12:17:45;100234.13;;;20.31
61390;BMP280;47260;48.274;19.814;2022-10-16T12:20:20;100235.28;;;20.50
61390;BMP280;47260;48.274;19.814;2022-10-16T12:22:48;100240.63;;;20.71
61390;BMP280;47260;48.274;19.814;2022-10-16T12:25:19;100232.63;;;20.88
61390;BMP280;47260;48.274;19.814;2022-10-16T12:27:53;100244.47;;;20.91
61390;BMP280;47260;48.274;19.814;2022-10-16T12:30:20;100246.72;;;20.41
61390;BMP280;47260;48.274;19.814;2022-10-16T12:32:52;100244.97;;;20.67
61390;BMP280;47260;48.274;19.814;2022-10-16T12:35:21;100254.06;;;20.69
61390;BMP280;47260;48.274;19.814;2022-10-16T12:37:48;100257.19;;;20.88
61390;BMP280;47260;48.274;19.814;2022-10-16T12:40:15;100246.13;;;21.09
61390;BMP280;47260;48.274;19.814;2022-10-16T12:42:42;100250.16;;;21.15
61390;BMP280;47260;48.274;19.814;2022-10-16T12:45:26;100249.56;;;20.94
61390;BMP280;47260;48.274;19.814;2022-10-16T12:47:53;100255.22;;;20.96
61390;BMP280;47260;48.274;19.814;2022-10-16T12:50:32;100250.84;;;20.35
61390;BMP280;47260;48.274;19.814;2022-10-16T12:52:59;100252.47;;;20.30
61390;BMP280;47260;48.274;19.814;2022-10-16T12:55:26;100250.03;;;20.12
61390;BMP280;47260;48.274;19.814;2022-10-16T12:58:02;100250.03;;;19.76
61390;BMP280;47260;48.274;19.814;2022-10-16T13:00:32;100251.31;;;19.55
61390;BMP280;47260;48.274;19.814;2022-10-16T13:03:11;100260.97;;;19.56
61390;BMP280;47260;48.274;19.814;2022-10-16T13:05:47;100250.78;;;19.56
61390;BMP280;47260;48.274;19.814;2022-10-16T13:08:23;100255.00;;;19.65
61390;BMP280;47260;48.274;19.814;2022-10-16T13:10:55;100248.84;;;19.64
61390;BMP280;47260;48.274;19.814;2022-10-16T13:16:13;100250.47;;;19.39
61390;BMP280;47260;48.274;19.814;2022-10-16T13:18:48;100255.78;;;19.45
61390;BMP280;47260;48.274;19.814;2022-10-16T13:21:24;100245.03;;;19.67
61390;BMP280;47260;48.274;19.814;2022-10-16T13:23:55;100247.75;;;19.88
61390;BMP280;47260;48.274;19.814;2022-10-16T13:26:28;100248.28;;;19.86
61390;BMP280;47260;48.274;19.814;2022-10-16T13:28:58;100260.75;;;19.82
61390;BMP280;47260;48.274;19.814;2022-10-16T13:31:25;100258.19;;;19.76
61390;BMP280;47260;48.274;19.814;2022-10-16T13:33:52;100257.94;;;19.67
61390;BMP280;47260;48.274;19.814;2022-10-16T13:36:22;100261.69;;;19.56
61390;BMP280;47260;48.274;19.814;2022-10-16T13:38:58;100268.03;;;19.31
61390;BMP280;47260;48.274;19.814;2022-10-16T13:41:26;100264.97;;;19.34
61390;BMP280;47260;48.274;19.814;2022-10-16T13:43:52;100261.63;;;19.49
61390;BMP280;47260;48.274;19.814;2022-10-16T13:46:21;100268.00;;;19.51
61390;BMP280;47260;48.274;19.814;2022-10-16T13:48:56;100269.88;;;19.56
61390;BMP280;47260;48.274;19.814;2022-10-16T13:51:24;100277.78;;;19.47
61390;BMP280;47260;48.274;19.814;2022-10-16T13:53:51;100275.06;;;19.47
61390;BMP280;47260;48.274;19.814;2022-10-16T13:56:18;100277.38;;;19.43
61390;BMP280;47260;48.274;19.814;2022-10-16T13:58:45;100280.34;;;19.52
61390;BMP280;47260;48.274;19.814;2022-10-16T14:01:15;100278.16;;;19.30
61390;BMP280;47260;48.274;19.814;2022-10-16T14:03:42;100271.16;;;19.14
61390;BMP280;47260;48.274;19.814;2022-10-16T14:06:11;100281.41;;;19.08
61390;BMP280;47260;48.274;19.814;2022-10-16T14:08:40;100281.72;;;19.05